»·PEaware :: N409BH KFHR-KPSC

N409BH :: KFHR-KPSC

FLIGHT INFORMATION

Flight Status: Arrived
Operator: Privately registered:
United States
More flights under this callsign
Pilot: Rick S. (2164)
Aircraft: MOONEY M-20 201 202 205 220 ATS MSE
(M20P)
More flights by this aircraft type
Origin: KFHR Friday Harbor
United States
Destination: KPSC Tri-Cities
United States
More flights between these airports :: More routes between these airports
Route: +ORCUS V495 SEA V2 ELN V187 FEBUS OLFUS
File this flight plan on PilotEdge
Remarks:
Altitude:
(Current/Filed)
9,000ft
Speed:
(Current/Filed)
160kts
Departed: 21-Oct-20 11:51 AM
Arrived: 21-Oct-20 01:18 PM
Distance/Time
Traveled:
209nm/1:27
Distance/Time
To Go:
Arrived

Flight Plot

Page will automatically refresh every two minutes.

Flight plan parsing failed; only flown route is shown


Map Options




Map Legend


Flown Route
Filed Route
Departure Airport
Arrival Airport
Navaid (VOR, NDB)
Fix

Horizontal Profiles

Position Reports

Time Latitude Longitude Heading Altitude Ground
Speed
21-Oct-20 11:29 48.525625 -123.026202 87 116ft 0kts
21-Oct-20 11:30 48.525625 -123.026202 87 116ft 0kts
21-Oct-20 11:31 48.525625 -123.026202 87 116ft 0kts
21-Oct-20 11:32 48.525625 -123.026202 87 116ft 0kts
21-Oct-20 11:33 48.525625 -123.026202 87 116ft 0kts
21-Oct-20 11:34 48.525625 -123.026202 87 116ft 0kts
21-Oct-20 11:35 48.525625 -123.026202 87 116ft 0kts
21-Oct-20 11:36 48.525625 -123.026195 86 116ft 1kts
21-Oct-20 11:37 48.526661 -123.026349 48 119ft 0kts
21-Oct-20 11:38 48.526696 -123.025454 121 116ft 0kts
21-Oct-20 11:39 48.526696 -123.025454 121 116ft 0kts
21-Oct-20 11:40 48.526696 -123.025454 121 116ft 0kts
21-Oct-20 11:41 48.526696 -123.025454 121 116ft 0kts
21-Oct-20 11:42 48.526696 -123.025454 121 116ft 0kts
21-Oct-20 11:43 48.526696 -123.025454 121 116ft 0kts
21-Oct-20 11:44 48.526696 -123.025454 121 116ft 0kts
21-Oct-20 11:45 48.526696 -123.025454 121 116ft 0kts
21-Oct-20 11:46 48.526696 -123.025454 121 116ft 0kts
21-Oct-20 11:47 48.526696 -123.025454 121 116ft 0kts
21-Oct-20 11:48 48.526696 -123.025454 121 116ft 0kts
21-Oct-20 11:49 48.526696 -123.025454 121 116ft 0kts
21-Oct-20 11:50 48.525152 -123.024547 179 106ft 52kts
21-Oct-20 11:51 48.495858 -123.027815 195 920ft 118kts
21-Oct-20 11:52 48.463828 -123.049149 205 2014ft 134kts
21-Oct-20 11:53 48.429100 -123.072201 206 3129ft 131kts
21-Oct-20 11:54 48.397994 -123.092989 209 4401ft 112kts
21-Oct-20 11:55 48.371104 -123.111049 211 5507ft 103kts
21-Oct-20 11:56 48.342614 -123.121617 162 6411ft 120kts
21-Oct-20 11:57 48.312414 -123.098261 154 7319ft 119kts
21-Oct-20 11:59 48.284401 -123.073573 153 8219ft 111kts
21-Oct-20 12:00 48.256873 -123.048548 152 8932ft 118kts
21-Oct-20 12:01 48.222029 -123.016653 150 8995ft 172kts
21-Oct-20 12:02 48.178086 -122.976531 150 8993ft 192kts
21-Oct-20 12:03 48.131277 -122.933819 150 8993ft 198kts
21-Oct-20 12:04 48.083716 -122.890486 150 8993ft 200kts
21-Oct-20 12:05 48.035957 -122.847080 150 8993ft 200kts
21-Oct-20 12:06 47.988200 -122.803774 151 8994ft 199kts
21-Oct-20 12:07 47.940256 -122.760450 151 8994ft 201kts
21-Oct-20 12:08 47.892004 -122.716931 151 8992ft 201kts
21-Oct-20 12:09 47.843993 -122.673738 151 8991ft 201kts
21-Oct-20 12:10 47.795738 -122.630379 151 8992ft 201kts
21-Oct-20 12:11 47.747556 -122.587190 151 8992ft 201kts
21-Oct-20 12:12 47.699301 -122.544079 151 8993ft 202kts
21-Oct-20 12:13 47.650645 -122.500554 151 8992ft 203kts
21-Oct-20 12:13 47.610028 -122.464395 151 8992ft 202kts
21-Oct-20 12:15 47.553294 -122.414041 150 8994ft 203kts
21-Oct-20 12:15 47.512605 -122.377925 151 8993ft 203kts
21-Oct-20 12:17 47.455488 -122.327337 151 8983ft 203kts
21-Oct-20 12:17 47.428755 -122.271075 110 8980ft 205kts
21-Oct-20 12:18 47.410164 -122.190985 106 8979ft 203kts
21-Oct-20 12:20 47.389901 -122.096545 105 8961ft 204kts
21-Oct-20 12:20 47.375437 -122.029229 105 8937ft 204kts
21-Oct-20 12:21 47.358004 -121.948381 106 8905ft 203kts
21-Oct-20 12:22 47.340632 -121.868130 106 8892ft 202kts
21-Oct-20 12:23 47.323314 -121.788441 106 8892ft 202kts
21-Oct-20 12:24 47.305992 -121.709034 106 8892ft 199kts
21-Oct-20 12:25 47.288795 -121.630496 106 8892ft 200kts
21-Oct-20 12:26 47.271396 -121.551337 106 8893ft 201kts
21-Oct-20 12:27 47.253927 -121.472173 106 8893ft 202kts
21-Oct-20 12:28 47.236309 -121.392615 106 8893ft 201kts
21-Oct-20 12:29 47.218769 -121.313743 106 8891ft 201kts
21-Oct-20 12:30 47.201173 -121.234908 106 8891ft 200kts
21-Oct-20 12:31 47.183516 -121.156086 106 8889ft 200kts
21-Oct-20 12:32 47.165776 -121.077190 106 8883ft 200kts
21-Oct-20 12:33 47.148026 -120.998546 106 8877ft 200kts
21-Oct-20 12:34 47.130267 -120.920155 106 8874ft 201kts
21-Oct-20 12:35 47.112456 -120.841804 106 8874ft 200kts
21-Oct-20 12:36 47.094647 -120.763736 106 8874ft 200kts
21-Oct-20 12:37 47.076705 -120.685388 106 8874ft 200kts
21-Oct-20 12:38 47.059092 -120.608744 106 8975ft 197kts
21-Oct-20 12:39 47.041324 -120.531689 106 8975ft 198kts
21-Oct-20 12:40 47.023542 -120.454021 105 8975ft 199kts
21-Oct-20 12:41 47.007080 -120.375851 104 8976ft 199kts
21-Oct-20 12:42 46.990647 -120.297734 105 8974ft 199kts
21-Oct-20 12:43 46.974121 -120.219454 105 8974ft 199kts
21-Oct-20 12:44 46.957601 -120.141501 105 8971ft 199kts
21-Oct-20 12:45 46.940975 -120.063333 105 8968ft 199kts
21-Oct-20 12:46 46.924231 -119.984878 106 8965ft 199kts
21-Oct-20 12:47 46.907547 -119.907075 106 8965ft 198kts
21-Oct-20 12:48 46.875548 -119.842306 129 8958ft 199kts
21-Oct-20 12:49 46.849695 -119.769545 115 8967ft 199kts
21-Oct-20 12:50 46.824869 -119.695648 115 8970ft 199kts
21-Oct-20 12:51 46.800153 -119.622209 116 8973ft 199kts
21-Oct-20 12:52 46.775430 -119.548972 116 8976ft 199kts
21-Oct-20 12:53 46.750640 -119.475740 116 8979ft 199kts
21-Oct-20 12:54 46.725690 -119.402235 116 8982ft 199kts
21-Oct-20 12:55 46.700861 -119.329169 117 8981ft 199kts
21-Oct-20 12:56 46.676175 -119.255932 117 8981ft 199kts
21-Oct-20 12:57 46.651781 -119.182914 117 8982ft 199kts
21-Oct-20 12:58 46.627614 -119.109883 117 8982ft 198kts
21-Oct-20 12:59 46.603656 -119.036760 120 8980ft 199kts
21-Oct-20 13:00 46.555718 -119.004139 162 8430ft 190kts
21-Oct-20 13:01 46.506935 -118.975572 162 7726ft 187kts
21-Oct-20 13:02 46.458654 -118.947319 161 7020ft 184kts
21-Oct-20 13:03 46.410896 -118.919427 161 6314ft 183kts
21-Oct-20 13:04 46.363588 -118.891855 161 5608ft 181kts
21-Oct-20 13:05 46.317394 -118.864971 161 5070ft 175kts
21-Oct-20 13:06 46.271735 -118.838445 161 4568ft 175kts
21-Oct-20 13:07 46.226224 -118.812058 161 4066ft 175kts
21-Oct-20 13:08 46.184690 -118.822130 222 3864ft 152kts
21-Oct-20 13:09 46.154403 -118.865757 228 3564ft 153kts
21-Oct-20 13:10 46.133221 -118.915629 283 3289ft 150kts
21-Oct-20 13:11 46.154032 -118.960673 313 3220ft 118kts
21-Oct-20 13:12 46.174894 -118.989855 313 2719ft 95kts
21-Oct-20 13:13 46.193896 -119.016426 312 2213ft 94kts
21-Oct-20 13:14 46.213033 -119.043170 311 1691ft 96kts
21-Oct-20 13:15 46.232838 -119.070875 312 1156ft 100kts
21-Oct-20 13:16 46.252812 -119.098848 309 611ft 95kts
21-Oct-20 13:17 46.265469 -119.114786 39 405ft 17kts
21-Oct-20 13:18 46.265259 -119.115171 222 405ft 10kts
21-Oct-20 13:19 46.262387 -119.114670 136 404ft 15kts
21-Oct-20 13:20 46.260177 -119.117002 326 398ft 0kts

Navigation Log

Ident Type
Flight plan parsing failed, navigation log unavailable